createdAt,value
2024-05-09T00:00:31.660Z,94885.72
2024-05-09T00:03:06.015Z,94882.72
2024-05-09T00:05:35.977Z,94881.63
2024-05-09T00:08:03.794Z,94874.84
2024-05-09T00:10:36.331Z,94881.78
2024-05-09T00:13:05.581Z,94882.25
2024-05-09T00:15:32.398Z,94884.31
2024-05-09T00:17:59.149Z,94882.44
2024-05-09T00:20:33.680Z,94884.00
2024-05-09T00:23:08.303Z,94883.19
2024-05-09T00:25:35.628Z,94884.00
2024-05-09T00:28:02.481Z,94876.75
2024-05-09T00:30:34.380Z,94877.69
2024-05-09T00:33:04.398Z,94876.13
2024-05-09T00:35:31.869Z,94872.03
2024-05-09T00:37:58.713Z,94873.44
2024-05-09T00:40:38.971Z,94866.97
2024-05-09T00:43:08.280Z,94869.66
2024-05-09T00:45:35.155Z,94860.53
2024-05-09T00:48:04.729Z,94864.94
2024-05-09T00:50:36.460Z,94862.09
2024-05-09T00:53:05.162Z,94855.16
2024-05-09T00:55:36.217Z,94861.94
2024-05-09T00:58:03.665Z,94858.00
2024-05-09T01:00:35.913Z,94854.34
2024-05-09T01:03:06.679Z,94853.88
2024-05-09T01:05:33.667Z,94848.06
2024-05-09T01:08:00.627Z,94851.34
2024-05-09T01:10:33.766Z,94844.41
2024-05-09T01:13:06.053Z,94849.78
2024-05-09T01:15:33.813Z,94847.25
2024-05-09T01:18:01.726Z,94851.50
2024-05-09T01:20:39.134Z,94842.19
2024-05-09T01:23:12.764Z,94846.00
2024-05-09T01:25:40.850Z,94846.00
2024-05-09T01:28:07.778Z,94847.06
2024-05-09T01:30:36.950Z,94847.06
2024-05-09T01:33:06.835Z,94857.00
2024-05-09T01:35:35.403Z,94851.63
2024-05-09T01:38:02.358Z,94851.03
2024-05-09T01:40:37.541Z,94845.50
2024-05-09T01:43:06.894Z,94853.88
2024-05-09T01:45:33.911Z,94856.06
2024-05-09T01:48:01.142Z,94856.06
2024-05-09T01:50:37.697Z,94857.63
2024-05-09T01:53:08.338Z,94859.38
2024-05-09T01:55:37.903Z,94855.09
2024-05-09T01:58:05.003Z,94852.41
2024-05-09T02:00:38.807Z,94864.25
2024-05-09T02:03:12.429Z,94861.88
2024-05-09T02:05:42.033Z,94854.63
2024-05-09T02:08:12.890Z,94857.31
2024-05-09T02:10:42.627Z,94860.00
2024-05-09T02:13:09.548Z,94860.00
2024-05-09T02:15:36.421Z,94851.97
2024-05-09T02:18:03.542Z,94846.44
2024-05-09T02:20:35.988Z,94849.88
2024-05-09T02:23:04.867Z,94846.75
2024-05-09T02:25:32.289Z,94847.81
2024-05-09T02:28:02.068Z,94845.94
2024-05-09T02:30:38.422Z,94842.47
2024-05-09T02:33:09.494Z,94843.28
2024-05-09T02:35:37.821Z,94839.00
2024-05-09T02:38:04.970Z,94834.91
2024-05-09T02:40:37.031Z,94841.84
2024-05-09T02:43:10.549Z,94840.28
2024-05-09T02:45:38.291Z,94834.28
2024-05-09T02:48:06.491Z,94843.59
2024-05-09T02:50:38.405Z,94836.81
2024-05-09T02:53:06.844Z,94836.19
2024-05-09T02:55:34.413Z,94836.69
2024-05-09T02:58:01.200Z,94836.19
2024-05-09T03:00:38.200Z,94845.81
2024-05-09T03:03:09.594Z,94840.91
2024-05-09T03:05:38.029Z,94844.72
2024-05-09T03:08:08.488Z,94844.22
2024-05-09T03:10:37.523Z,94850.06
2024-05-09T03:13:06.704Z,94847.72
2024-05-09T03:15:36.087Z,94846.13
2024-05-09T03:18:03.361Z,94847.72
2024-05-09T03:20:35.486Z,94848.50
2024-05-09T03:23:04.073Z,94844.72
2024-05-09T03:25:31.057Z,94843.91
2024-05-09T03:27:57.834Z,94845.50
2024-05-09T03:30:31.186Z,94847.06
2024-05-09T03:33:11.010Z,94851.50
2024-05-09T03:35:38.022Z,94851.50
2024-05-09T03:38:05.155Z,94847.88
2024-05-09T03:40:31.914Z,94844.09
2024-05-09T03:42:58.698Z,94844.09
2024-05-09T03:45:25.555Z,94842.69
2024-05-09T03:47:52.880Z,94842.53
2024-05-09T03:50:29.835Z,94847.56
2024-05-09T03:53:01.071Z,94843.31
2024-05-09T03:55:28.368Z,94836.69
2024-05-09T03:57:55.264Z,94838.88
2024-05-09T04:00:31.039Z,94837.78
2024-05-09T04:03:06.212Z,94841.22
2024-05-09T04:05:37.749Z,94840.63
2024-05-09T04:08:05.460Z,94842.19
2024-05-09T04:10:34.249Z,94842.53
2024-05-09T04:13:02.175Z,94843.00
2024-05-09T04:15:29.129Z,94842.53
2024-05-09T04:17:56.395Z,94852.13
2024-05-09T04:20:34.022Z,94849.94
2024-05-09T04:23:11.910Z,94846.94
2024-05-09T04:25:41.698Z,94854.84
2024-05-09T04:28:08.489Z,94862.56
2024-05-09T04:30:39.224Z,94859.88
2024-05-09T04:33:10.568Z,94856.25
2024-05-09T04:35:39.427Z,94859.59
2024-05-09T04:38:09.357Z,94850.91
2024-05-09T04:40:37.497Z,94853.44
2024-05-09T04:43:05.688Z,94856.75
2024-05-09T04:45:33.064Z,94855.97
2024-05-09T04:48:00.383Z,94857.13
2024-05-09T04:50:36.078Z,94860.25
2024-05-09T04:53:10.341Z,94862.94
2024-05-09T04:55:38.587Z,94862.63
2024-05-09T04:58:07.991Z,94865.28
2024-05-09T05:00:37.410Z,94870.34
2024-05-09T05:03:07.605Z,94871.31
2024-05-09T05:05:41.456Z,94857.41
2024-05-09T05:08:14.266Z,94850.75
2024-05-09T05:10:41.834Z,94859.75
2024-05-09T05:13:08.863Z,94859.91
2024-05-09T05:15:35.777Z,94858.16
2024-05-09T05:18:02.747Z,94851.34
2024-05-09T05:20:33.585Z,94863.31
2024-05-09T05:23:01.280Z,94861.38
2024-05-09T05:25:30.795Z,94863.16
2024-05-09T05:27:57.566Z,94858.34
2024-05-09T05:30:29.110Z,94862.88
2024-05-09T05:33:01.289Z,94858.25
2024-05-09T05:35:28.289Z,94856.63
2024-05-09T05:37:55.311Z,94857.09
2024-05-09T05:40:28.653Z,94862.44
2024-05-09T05:43:05.429Z,94844.41
2024-05-09T05:45:32.197Z,94851.25
2024-05-09T05:47:59.378Z,94854.78
2024-05-09T05:50:32.565Z,94852.91
2024-05-09T05:53:03.271Z,94858.47
2024-05-09T05:55:30.151Z,94857.22
2024-05-09T05:57:56.972Z,94856.63
2024-05-09T06:00:34.348Z,94862.22
2024-05-09T06:03:05.418Z,94865.03
2024-05-09T06:05:33.022Z,94855.13
2024-05-09T06:08:00.252Z,94856.34
2024-05-09T06:10:37.003Z,94859.78
2024-05-09T06:13:06.686Z,94852.91
2024-05-09T06:15:36.241Z,94858.97
2024-05-09T06:18:05.771Z,94860.22
2024-05-09T06:20:36.492Z,94854.97
2024-05-09T06:23:07.820Z,94863.50
2024-05-09T06:25:35.756Z,94865.00
2024-05-09T06:28:06.720Z,94861.75
2024-05-09T06:30:39.785Z,94869.72
2024-05-09T06:33:11.826Z,94861.78
2024-05-09T06:35:40.831Z,94868.69
2024-05-09T06:38:08.274Z,94864.81
2024-05-09T06:40:38.446Z,94867.78
2024-05-09T06:43:10.958Z,94866.69
2024-05-09T06:45:49.003Z,94868.00
2024-05-09T06:48:18.085Z,94858.53
2024-05-09T06:50:45.457Z,94870.31
2024-05-09T06:53:14.524Z,94868.66
2024-05-09T06:55:45.038Z,94871.13
2024-05-09T06:58:12.025Z,94865.50
2024-05-09T07:00:42.357Z,94880.78
2024-05-09T07:03:10.787Z,94867.69
2024-05-09T07:05:38.532Z,94870.88
2024-05-09T07:08:06.902Z,94875.53
2024-05-09T07:10:36.997Z,94873.09
2024-05-09T07:13:08.198Z,94871.31
2024-05-09T07:15:34.976Z,94876.41
2024-05-09T07:18:08.446Z,94869.47
2024-05-09T07:20:35.438Z,94857.56
2024-05-09T07:23:02.387Z,94861.38
2024-05-09T07:25:29.985Z,94863.06
2024-05-09T07:27:59.048Z,94857.44
2024-05-09T07:30:31.081Z,94852.56
2024-05-09T07:33:01.631Z,94859.41
2024-05-09T07:35:32.181Z,94858.44
2024-05-09T07:38:00.070Z,94851.88
2024-05-09T07:40:34.611Z,94849.13
2024-05-09T07:43:09.601Z,94853.88
2024-05-09T07:45:48.361Z,94845.50
2024-05-09T07:52:39.246Z,94842.31
2024-05-09T07:53:48.011Z,94842.50
2024-05-09T07:56:19.709Z,94840.06
2024-05-09T07:58:50.005Z,94833.81
2024-05-09T08:01:17.145Z,94831.41
2024-05-09T08:03:45.293Z,94831.81
2024-05-09T08:06:15.105Z,94836.59
2024-05-09T08:08:42.075Z,94841.66
2024-05-09T08:11:08.889Z,94831.91
2024-05-09T08:13:35.774Z,94832.78
2024-05-09T08:16:02.711Z,94831.44
2024-05-09T08:18:29.699Z,94829.66
2024-05-09T08:20:58.642Z,94838.50
2024-05-09T08:23:28.342Z,94832.94
2024-05-09T08:25:55.237Z,94840.44
2024-05-09T08:28:22.190Z,94831.69
2024-05-09T08:31:09.494Z,94834.41
2024-05-09T08:33:37.086Z,94830.66
2024-05-09T08:36:07.046Z,94829.63
2024-05-09T08:38:36.376Z,94835.59
2024-05-09T08:41:04.455Z,94829.09
2024-05-09T08:43:31.357Z,94823.84
2024-05-09T08:45:59.395Z,94827.59
2024-05-09T08:48:26.827Z,94824.78
2024-05-09T08:50:53.925Z,94831.88
2024-05-09T08:53:21.118Z,94837.75
2024-05-09T08:55:51.522Z,94829.34
2024-05-09T08:58:19.068Z,94828.91
2024-05-09T09:00:46.830Z,94830.66
2024-05-09T09:03:17.537Z,94821.56
2024-05-09T09:05:53.556Z,94820.56
2024-05-09T09:08:21.536Z,94820.19
2024-05-09T09:10:57.701Z,94829.09
2024-05-09T09:13:27.180Z,94825.63
2024-05-09T09:15:54.449Z,94825.69
2024-05-09T09:18:25.112Z,94822.78
2024-05-09T09:20:54.944Z,94822.09
2024-05-09T09:23:22.375Z,94820.63
2024-05-09T09:25:52.142Z,94831.41
2024-05-09T09:28:23.168Z,94822.19
2024-05-09T09:30:50.329Z,94830.13
2024-05-09T09:33:18.212Z,94832.44
2024-05-09T09:35:58.634Z,94827.41
2024-05-09T09:39:11.846Z,94822.13
2024-05-09T09:45:13.410Z,94829.53
2024-05-09T09:54:39.725Z,94815.59
2024-05-09T09:57:08.355Z,94830.72
2024-05-09T09:59:39.176Z,94821.16
2024-05-09T10:05:47.075Z,94825.84
2024-05-09T10:08:16.682Z,94822.03
2024-05-09T10:10:46.859Z,94828.16
2024-05-09T10:13:14.110Z,94823.13
2024-05-09T10:15:46.660Z,94827.44
2024-05-09T10:18:14.216Z,94822.81
2024-05-09T10:20:45.671Z,94830.09
2024-05-09T10:23:26.384Z,94824.63
2024-05-09T10:25:57.888Z,94827.03
2024-05-09T10:28:27.887Z,94834.03
2024-05-09T10:31:08.679Z,94825.78
2024-05-09T10:33:37.330Z,94826.63
2024-05-09T10:43:22.415Z,94823.50
2024-05-09T10:45:49.865Z,94824.47
2024-05-09T10:48:18.996Z,94821.53
2024-05-09T10:50:49.142Z,94818.84
2024-05-09T10:53:20.331Z,94819.09
2024-05-09T10:55:56.791Z,94819.97
2024-05-09T10:58:23.829Z,94818.50
2024-05-09T11:01:04.339Z,94810.19
2024-05-09T11:03:56.701Z,94806.94
2024-05-09T11:06:35.190Z,94807.09
2024-05-09T11:09:05.133Z,94801.56
2024-05-09T11:11:32.764Z,94798.03
2024-05-09T11:13:59.642Z,94808.13
2024-05-09T11:16:31.879Z,94808.56
2024-05-09T11:19:02.210Z,94791.84
2024-05-09T11:21:29.517Z,94796.13
2024-05-09T11:23:59.284Z,94801.09
2024-05-09T11:26:33.235Z,94797.00
2024-05-09T11:29:00.419Z,94798.78
2024-05-09T11:31:30.658Z,94791.81
2024-05-09T11:33:57.731Z,94784.03
2024-05-09T11:36:26.705Z,94778.34
2024-05-09T11:38:53.676Z,94788.97
2024-05-09T11:41:20.619Z,94789.19
2024-05-09T11:43:56.034Z,94788.66
2024-05-09T11:46:32.709Z,94796.81
2024-05-09T11:49:15.342Z,94790.97
2024-05-09T11:59:20.748Z,94785.75
2024-05-09T12:01:59.357Z,94787.84
2024-05-09T12:04:31.120Z,94785.53
2024-05-09T12:06:58.527Z,94780.47
2024-05-09T12:09:25.508Z,94773.34
2024-05-09T12:11:52.514Z,94777.50
2024-05-09T12:14:21.947Z,94781.59
2024-05-09T12:16:48.893Z,94786.75
2024-05-09T12:19:18.880Z,94773.56
2024-05-09T12:21:45.906Z,94775.47
2024-05-09T12:24:15.196Z,94788.66
2024-05-09T12:26:43.886Z,94781.72
2024-05-09T12:29:11.144Z,94777.41
2024-05-09T12:31:40.675Z,94774.41
2024-05-09T12:34:07.659Z,94763.88
2024-05-09T12:36:34.775Z,94772.59
2024-05-09T12:39:03.475Z,94773.06
2024-05-09T12:41:32.908Z,94767.97
2024-05-09T12:43:59.867Z,94771.53
2024-05-09T12:46:27.299Z,94759.16
2024-05-09T12:48:58.189Z,94755.47
2024-05-09T12:51:25.384Z,94766.03
2024-05-09T12:53:52.215Z,94760.59
2024-05-09T12:56:19.205Z,94760.16
2024-05-09T12:58:46.303Z,94754.34
2024-05-09T13:01:13.239Z,94758.13
2024-05-09T13:03:40.311Z,94748.75
2024-05-09T13:06:10.116Z,94750.81
2024-05-09T13:08:36.986Z,94742.22
2024-05-09T13:11:03.853Z,94749.50
2024-05-09T13:13:30.673Z,94745.56
2024-05-09T13:15:57.526Z,94747.78
2024-05-09T13:18:24.548Z,94746.25
2024-05-09T13:20:51.391Z,94744.81
2024-05-09T13:23:20.755Z,94735.59
2024-05-09T13:25:47.522Z,94734.78
2024-05-09T13:28:14.554Z,94730.91
2024-05-09T13:30:42.359Z,94735.63
2024-05-09T13:33:11.021Z,94730.13
2024-05-09T13:35:38.747Z,94728.59
2024-05-09T13:38:05.983Z,94723.88
2024-05-09T13:40:36.520Z,94723.03
2024-05-09T13:43:04.081Z,94733.25
2024-05-09T13:45:31.177Z,94720.66
2024-05-09T13:47:58.288Z,94718.47
2024-05-09T13:50:33.201Z,94710.56
2024-05-09T13:53:02.931Z,94723.53
2024-05-09T13:55:29.762Z,94717.56
2024-05-09T13:57:59.398Z,94715.31
2024-05-09T14:00:38.431Z,94723.03
2024-05-09T14:03:12.061Z,94714.16
2024-05-09T14:05:39.270Z,94718.41
2024-05-09T14:08:09.596Z,94713.38
2024-05-09T14:10:36.634Z,94709.06
2024-05-09T14:13:06.073Z,94706.44
2024-05-09T14:15:35.319Z,94707.25
2024-05-09T14:18:02.551Z,94703.19
2024-05-09T14:20:31.998Z,94700.91
2024-05-09T14:22:59.769Z,94702.03
2024-05-09T14:25:29.210Z,94701.19
2024-05-09T14:27:59.651Z,94704.72
2024-05-09T14:30:36.003Z,94701.81
2024-05-09T14:33:09.122Z,94706.47
2024-05-09T14:35:36.874Z,94695.91
2024-05-09T14:38:04.159Z,94696.63
2024-05-09T14:40:40.395Z,94708.63
2024-05-09T14:43:10.773Z,94685.50
2024-05-09T14:45:40.906Z,94699.91
2024-05-09T14:48:08.855Z,94695.72
2024-05-09T14:50:41.103Z,94686.84
2024-05-09T14:54:11.235Z,94693.41
2024-05-09T14:56:41.863Z,94691.00
2024-05-09T14:59:08.596Z,94689.53
2024-05-09T15:01:37.986Z,94690.25
2024-05-09T15:04:05.208Z,94696.13
2024-05-09T15:06:32.424Z,94698.81
2024-05-09T15:08:59.686Z,94689.41
2024-05-09T15:11:26.722Z,94688.59
2024-05-09T15:13:53.976Z,94686.66
2024-05-09T15:16:21.034Z,94686.38
2024-05-09T15:18:50.970Z,94684.88
2024-05-09T15:21:18.007Z,94675.34
2024-05-09T15:23:44.906Z,94676.47
2024-05-09T15:26:11.896Z,94678.91
2024-05-09T15:28:40.408Z,94683.06
2024-05-09T15:31:07.165Z,94680.13
2024-05-09T15:33:34.050Z,94681.41
2024-05-09T15:36:03.856Z,94674.72
2024-05-09T15:38:30.762Z,94683.78
2024-05-09T15:40:57.510Z,94676.13
2024-05-09T15:43:27.143Z,94678.44
2024-05-09T15:45:55.190Z,94668.81
2024-05-09T15:48:25.221Z,94665.53
2024-05-09T15:50:52.127Z,94656.69
2024-05-09T15:53:21.742Z,94651.91
2024-05-09T15:55:48.598Z,94654.59
2024-05-09T15:58:15.551Z,94667.41
2024-05-09T16:15:40.872Z,94664.88
2024-05-09T16:18:14.721Z,94665.50
2024-05-09T16:20:57.614Z,94659.06
2024-05-09T16:23:33.102Z,94652.88
2024-05-09T16:25:59.962Z,94649.06
2024-05-09T16:28:27.238Z,94648.28
2024-05-09T16:30:54.210Z,94640.97
2024-05-09T16:33:24.015Z,94642.47
2024-05-09T16:35:51.035Z,94639.53
2024-05-09T16:38:18.124Z,94637.38
2024-05-09T16:40:44.992Z,94635.88
2024-05-09T16:43:13.292Z,94638.78
2024-05-09T16:45:41.957Z,94638.59
2024-05-09T16:48:09.440Z,94634.78
2024-05-09T16:50:39.169Z,94636.03
2024-05-09T16:53:06.793Z,94635.06
2024-05-09T16:55:34.394Z,94640.75
2024-05-09T16:58:01.991Z,94644.38
2024-05-09T17:00:40.778Z,94640.84
2024-05-09T17:03:11.600Z,94633.75
2024-05-09T17:05:42.972Z,94636.97
2024-05-09T17:08:10.175Z,94628.44
2024-05-09T17:10:37.818Z,94632.63
2024-05-09T17:13:07.165Z,94645.00
2024-05-09T17:15:35.500Z,94647.44
2024-05-09T17:18:03.992Z,94639.69
2024-05-09T17:20:36.322Z,94638.78
2024-05-09T17:23:07.070Z,94644.78
2024-05-09T17:25:34.347Z,94643.81
2024-05-09T17:28:02.422Z,94645.16
2024-05-09T17:30:35.072Z,94642.47
2024-05-09T17:36:34.667Z,94653.50
2024-05-09T17:39:04.492Z,94646.66
2024-05-09T17:41:31.547Z,94654.03
2024-05-09T17:43:58.625Z,94648.72
2024-05-09T17:46:35.174Z,94642.97
2024-05-09T17:49:05.213Z,94650.59
2024-05-09T17:51:34.532Z,94644.72
2024-05-09T17:54:04.089Z,94636.81
2024-05-09T17:56:33.793Z,94645.06
2024-05-09T17:59:00.779Z,94648.66
2024-05-09T18:01:27.781Z,94648.94
2024-05-09T18:03:54.939Z,94649.00
2024-05-09T18:06:23.882Z,94649.69
2024-05-09T18:08:50.761Z,94647.22
2024-05-09T18:11:20.643Z,94653.06
2024-05-09T18:13:47.786Z,94647.50
2024-05-09T18:16:15.048Z,94651.06
2024-05-09T18:18:42.101Z,94654.03
2024-05-09T18:21:09.027Z,94648.34
2024-05-09T18:23:36.328Z,94652.88
2024-05-09T18:26:03.395Z,94655.72
2024-05-09T18:28:35.642Z,94655.47
2024-05-09T18:31:02.533Z,94660.25
2024-05-09T18:33:29.767Z,94650.06
2024-05-09T18:35:56.908Z,94663.56
2024-05-09T18:38:24.002Z,94662.50
2024-05-09T18:40:51.067Z,94666.25
2024-05-09T18:43:26.360Z,94664.94
2024-05-09T18:46:01.013Z,94668.84
2024-05-09T18:48:28.098Z,94667.38
2024-05-09T18:50:55.229Z,94651.81
2024-05-09T18:53:22.308Z,94670.50
2024-05-09T18:55:49.227Z,94663.38
2024-05-09T18:58:16.674Z,94663.69
2024-05-09T19:00:46.025Z,94659.91
2024-05-09T19:03:19.151Z,94666.38
2024-05-09T19:05:47.184Z,94679.03
2024-05-09T19:08:14.629Z,94677.22
2024-05-09T19:10:41.923Z,94681.22
2024-05-09T19:13:12.179Z,94685.72
2024-05-09T19:15:41.636Z,94680.59
2024-05-09T19:18:10.088Z,94682.75
2024-05-09T19:20:39.972Z,94695.91
2024-05-09T19:23:07.501Z,94689.47
2024-05-09T19:25:35.672Z,94688.13
2024-05-09T19:28:03.701Z,94694.78
2024-05-09T19:30:38.468Z,94698.63
2024-05-09T19:33:09.835Z,94701.03
2024-05-09T19:35:40.286Z,94697.44
2024-05-09T19:38:10.314Z,94697.63
2024-05-09T19:40:37.457Z,94708.84
2024-05-09T19:43:05.912Z,94710.09
2024-05-09T19:45:34.427Z,94706.16
2024-05-09T19:48:02.558Z,94705.38
2024-05-09T19:50:37.366Z,94705.25
2024-05-09T19:53:12.415Z,94709.66
2024-05-09T19:55:39.657Z,94712.50
2024-05-09T19:58:07.909Z,94716.94
2024-05-09T20:00:38.151Z,94723.84
2024-05-09T20:03:08.249Z,94720.88
2024-05-09T20:05:37.122Z,94727.13
2024-05-09T20:08:05.153Z,94725.88
2024-05-09T20:10:36.706Z,94727.44
2024-05-09T20:13:06.669Z,94726.34
2024-05-09T20:15:35.869Z,94726.63
2024-05-09T20:18:03.800Z,94725.66
2024-05-09T20:20:37.577Z,94728.66
2024-05-09T20:23:08.488Z,94732.38
2024-05-09T20:25:37.907Z,94727.97
2024-05-09T20:28:11.478Z,94730.78
2024-05-09T20:30:38.524Z,94724.91
2024-05-09T20:33:07.278Z,94722.84
2024-05-09T20:35:35.565Z,94724.09
2024-05-09T20:38:03.503Z,94723.44
2024-05-09T20:40:34.927Z,94725.16
2024-05-09T20:43:08.349Z,94726.34
2024-05-09T20:45:35.646Z,94726.03
2024-05-09T20:48:03.071Z,94729.31
2024-05-09T20:50:40.670Z,94719.56
2024-05-09T20:53:15.404Z,94728.47
2024-05-09T20:55:43.625Z,94729.22
2024-05-09T20:58:14.205Z,94725.19
2024-05-09T21:00:44.166Z,94730.97
2024-05-09T21:03:14.030Z,94735.13
2024-05-09T21:05:42.151Z,94726.19
2024-05-09T21:08:09.191Z,94735.41
2024-05-09T21:10:36.847Z,94733.28
2024-05-09T21:13:04.879Z,94725.09
2024-05-09T21:15:35.347Z,94726.16
2024-05-09T21:18:04.681Z,94726.00
2024-05-09T21:20:33.210Z,94725.94
2024-05-09T21:23:00.630Z,94718.16
2024-05-09T21:25:27.593Z,94722.50
2024-05-09T21:27:54.762Z,94724.78
2024-05-09T21:30:31.963Z,94722.13
2024-05-09T21:33:12.268Z,94715.31
2024-05-09T21:35:41.139Z,94719.41
2024-05-09T21:38:10.835Z,94712.88
2024-05-09T21:40:38.319Z,94720.69
2024-05-09T21:43:07.267Z,94708.84
2024-05-09T21:45:35.204Z,94709.56
2024-05-09T21:48:03.602Z,94710.44
2024-05-09T21:50:39.368Z,94705.00
2024-05-09T21:53:12.489Z,94707.97
2024-05-09T21:55:39.844Z,94696.16
2024-05-09T21:58:06.697Z,94707.41
2024-05-09T22:00:37.573Z,94707.00
2024-05-09T22:03:06.423Z,94711.34
2024-05-09T22:05:36.331Z,94713.25
2024-05-09T22:08:03.406Z,94718.69
2024-05-09T22:10:35.040Z,94708.41
2024-05-09T22:13:04.031Z,94704.06
2024-05-09T22:15:32.367Z,94709.97
2024-05-09T22:17:59.379Z,94711.06
2024-05-09T22:20:34.465Z,94710.66
2024-05-09T22:23:08.481Z,94703.28
2024-05-09T22:25:38.161Z,94705.31
2024-05-09T22:28:08.030Z,94700.50
2024-05-09T22:30:39.748Z,94702.47
2024-05-09T22:33:08.150Z,94703.38
2024-05-09T22:35:38.036Z,94708.09
2024-05-09T22:38:07.852Z,94709.06
2024-05-09T22:43:05.269Z,94712.00
2024-05-09T22:45:34.703Z,94702.69
2024-05-09T22:48:01.897Z,94709.72
2024-05-09T22:50:33.137Z,94700.72
2024-05-09T22:53:00.475Z,94705.88
2024-05-09T22:55:29.959Z,94702.81
2024-05-09T22:57:56.880Z,94701.72
2024-05-09T23:02:53.435Z,94700.94
2024-05-09T23:05:20.596Z,94700.75
2024-05-09T23:07:47.531Z,94697.13
2024-05-09T23:10:21.220Z,94696.19
2024-05-09T23:12:57.140Z,94708.59
2024-05-09T23:15:23.860Z,94707.09
2024-05-09T23:17:50.752Z,94705.88
2024-05-09T23:20:25.932Z,94704.56
2024-05-09T23:22:57.046Z,94702.72
2024-05-09T23:25:23.868Z,94692.38
2024-05-09T23:27:50.813Z,94695.59
2024-05-09T23:30:29.222Z,94699.25
2024-05-09T23:33:03.981Z,94696.19
2024-05-09T23:35:30.926Z,94700.00
2024-05-09T23:37:57.770Z,94701.97
2024-05-09T23:40:34.945Z,94692.44
2024-05-09T23:43:09.298Z,94694.88
2024-05-09T23:45:39.340Z,94692.38
2024-05-09T23:48:07.066Z,94697.22
2024-05-09T23:50:37.283Z,94688.44
2024-05-09T23:53:07.219Z,94682.38
2024-05-09T23:55:35.277Z,94693.97
2024-05-09T23:58:02.162Z,94692.31
